»·PEaware :: N822GT KSNA-KOXR

N822GT :: KSNA-KOXR

FLIGHT INFORMATION

Flight Status: Arrived
Operator: Privately registered:
United States
More flights under this callsign
Pilot: James B. (31231)
Aircraft: CIRRUS SR-20
(SR20)
More flights by this aircraft type
Origin: KSNA John Wayne-Orange Co
United States
Destination: KOXR Oxnard
United States
More flights between these airports :: More routes between these airports
Route: SLI V23 POPPR SMO125 SMO VNY
File this flight plan on PilotEdge
Remarks: ATIS ZULU
Altitude:
(Current/Filed)
4,000ft
Speed:
(Current/Filed)
150kts
Departed: 17-Feb-21 06:51 PM
Arrived: 17-Feb-21 07:38 PM
Distance/Time
Traveled:
73nm/0:46
Distance/Time
To Go:
Arrived

Flight Plot

Page will automatically refresh every two minutes.


Map Options




Map Legend


Flown Route
Filed Route
Departure Airport
Arrival Airport
Navaid (VOR, NDB)
Fix

Horizontal Profiles

Position Reports

Time Latitude Longitude Heading Altitude Ground
Speed
17-Feb-21 18:26 33.672793 -117.873288 27 58ft 0kts
17-Feb-21 18:27 33.672793 -117.873288 27 58ft 0kts
17-Feb-21 18:28 33.672793 -117.873288 27 58ft 0kts
17-Feb-21 18:29 33.672793 -117.873288 27 58ft 0kts
17-Feb-21 18:30 33.672793 -117.873288 27 58ft 0kts
17-Feb-21 18:31 33.672793 -117.873288 27 58ft 0kts
17-Feb-21 18:32 33.672793 -117.873288 27 58ft 0kts
17-Feb-21 18:33 33.672793 -117.873288 27 58ft 0kts
17-Feb-21 18:34 33.672793 -117.873288 27 58ft 0kts
17-Feb-21 18:35 33.672793 -117.873288 27 58ft 0kts
17-Feb-21 18:36 33.672793 -117.873288 27 58ft 0kts
17-Feb-21 18:37 33.672793 -117.873288 27 58ft 0kts
17-Feb-21 18:38 33.672793 -117.873288 27 58ft 0kts
17-Feb-21 18:39 33.672793 -117.873288 27 58ft 0kts
17-Feb-21 18:40 33.672793 -117.873288 27 58ft 0kts
17-Feb-21 18:41 33.672793 -117.873288 27 58ft 0kts
17-Feb-21 18:41 33.672793 -117.873288 27 58ft 0kts
17-Feb-21 18:43 33.672793 -117.873288 27 58ft 0kts
17-Feb-21 18:44 33.672793 -117.873288 27 58ft 0kts
17-Feb-21 18:44 33.672793 -117.873288 27 58ft 0kts
17-Feb-21 18:46 33.672734 -117.872880 123 58ft 5kts
17-Feb-21 18:46 33.673792 -117.871521 27 58ft 18kts
17-Feb-21 18:47 33.678179 -117.868746 28 58ft 27kts
17-Feb-21 18:49 33.681182 -117.866402 113 58ft 0kts
17-Feb-21 18:50 33.681182 -117.866402 113 58ft 0kts
17-Feb-21 18:51 33.677398 -117.867735 208 63ft 75kts
17-Feb-21 18:51 33.664126 -117.881270 237 693ft 96kts
17-Feb-21 18:52 33.653032 -117.910495 253 1634ft 104kts
17-Feb-21 18:53 33.637258 -117.948883 243 2796ft 107kts
17-Feb-21 18:54 33.649509 -117.987401 325 3668ft 112kts
17-Feb-21 18:55 33.687336 -117.996436 8 4001ft 138kts
17-Feb-21 18:56 33.725235 -118.016774 329 3999ft 147kts
17-Feb-21 18:57 33.762574 -118.041656 333 3998ft 134kts
17-Feb-21 18:58 33.786971 -118.071741 291 3999ft 135kts
17-Feb-21 18:59 33.799634 -118.119307 290 3999ft 135kts
17-Feb-21 19:00 33.811302 -118.164582 290 3999ft 135kts
17-Feb-21 19:01 33.821802 -118.205705 290 3999ft 135kts
17-Feb-21 19:02 33.833653 -118.252298 290 3999ft 135kts
17-Feb-21 19:03 33.848349 -118.292247 319 3999ft 131kts
17-Feb-21 19:04 33.872008 -118.284407 97 3995ft 141kts
17-Feb-21 19:05 33.890970 -118.267627 309 4002ft 131kts
17-Feb-21 19:06 33.920509 -118.281500 310 4001ft 131kts
17-Feb-21 19:07 33.935043 -118.305264 310 4004ft 132kts
17-Feb-21 19:08 33.953600 -118.344228 309 4008ft 132kts
17-Feb-21 19:09 33.974959 -118.379063 311 4022ft 132kts
17-Feb-21 19:10 33.994336 -118.417030 304 4025ft 143kts
17-Feb-21 19:11 34.018708 -118.450759 348 4067ft 140kts
17-Feb-21 19:12 34.056826 -118.455688 354 4106ft 141kts
17-Feb-21 19:13 34.095632 -118.462479 352 4076ft 142kts
17-Feb-21 19:14 34.131256 -118.475819 320 4109ft 145kts
17-Feb-21 19:15 34.140095 -118.521640 259 4026ft 154kts
17-Feb-21 19:16 34.113956 -118.557991 206 4164ft 154kts
17-Feb-21 19:17 34.081596 -118.589228 230 4261ft 153kts
17-Feb-21 19:18 34.052623 -118.625557 252 4316ft 153kts
17-Feb-21 19:19 34.053275 -118.675538 274 4234ft 151kts
17-Feb-21 19:20 34.048732 -118.726198 260 4172ft 154kts
17-Feb-21 19:21 34.039521 -118.775983 283 4224ft 146kts
17-Feb-21 19:22 34.071946 -118.799807 338 4189ft 147kts
17-Feb-21 19:23 34.108375 -118.818088 336 4173ft 128kts
17-Feb-21 19:24 34.138059 -118.833026 339 4200ft 108kts
17-Feb-21 19:25 34.164847 -118.848318 335 4189ft 105kts
17-Feb-21 19:26 34.190372 -118.863932 329 4228ft 108kts
17-Feb-21 19:27 34.201937 -118.893224 267 3927ft 122kts
17-Feb-21 19:28 34.201477 -118.931415 268 3657ft 107kts
17-Feb-21 19:29 34.198588 -118.968409 272 3257ft 117kts
17-Feb-21 19:30 34.199243 -119.004602 273 3231ft 99kts
17-Feb-21 19:31 34.198379 -119.040191 273 2912ft 107kts
17-Feb-21 19:32 34.201337 -119.078236 277 2167ft 122kts
17-Feb-21 19:33 34.202826 -119.097665 276 1805ft 121kts
17-Feb-21 19:34 34.201026 -119.136977 270 881ft 118kts
17-Feb-21 19:35 34.200347 -119.168452 269 416ft 77kts
17-Feb-21 19:36 34.200678 -119.194058 270 172ft 87kts
17-Feb-21 19:37 34.200829 -119.213265 272 32ft 30kts
17-Feb-21 19:38 34.199904 -119.216569 104 29ft 0kts
17-Feb-21 19:39 34.199886 -119.214598 90 32ft 18kts
17-Feb-21 19:40 34.199831 -119.208256 92 35ft 21kts
17-Feb-21 19:41 34.199797 -119.201659 90 38ft 21kts
17-Feb-21 19:42 34.199021 -119.198897 93 42ft 0kts

Navigation Log

Ident Type
Flight plan parsing failed, navigation log unavailable